sensor_id;sensor_type;location;lat;lon;timestamp;temperature;humidity
54264;DHT22;40178;53.042;6.406;2023-07-29T00:01:34;18.10;99.90
54264;DHT22;40178;53.042;6.406;2023-07-29T00:04:00;18.10;99.90
54264;DHT22;40178;53.042;6.406;2023-07-29T00:06:26;18.10;99.90
54264;DHT22;40178;53.042;6.406;2023-07-29T00:08:52;18.10;99.90
54264;DHT22;40178;53.042;6.406;2023-07-29T00:11:17;18.10;99.90
54264;DHT22;40178;53.042;6.406;2023-07-29T00:13:43;18.10;99.90
54264;DHT22;40178;53.042;6.406;2023-07-29T00:16:09;18.20;99.90
54264;DHT22;40178;53.042;6.406;2023-07-29T00:18:35;18.10;99.90
54264;DHT22;40178;53.042;6.406;2023-07-29T00:21:01;18.20;99.90
54264;DHT22;40178;53.042;6.406;2023-07-29T00:23:27;18.20;99.90
54264;DHT22;40178;53.042;6.406;2023-07-29T00:25:52;18.00;99.90
54264;DHT22;40178;53.042;6.406;2023-07-29T00:28:18;18.10;99.90
54264;DHT22;40178;53.042;6.406;2023-07-29T00:30:44;18.10;99.90
54264;DHT22;40178;53.042;6.406;2023-07-29T00:33:09;18.10;99.90
54264;DHT22;40178;53.042;6.406;2023-07-29T00:35:35;18.00;99.90
54264;DHT22;40178;53.042;6.406;2023-07-29T00:38:01;17.90;99.90
54264;DHT22;40178;53.042;6.406;2023-07-29T00:40:28;17.90;99.90
54264;DHT22;40178;53.042;6.406;2023-07-29T00:42:54;17.90;99.90
54264;DHT22;40178;53.042;6.406;2023-07-29T00:45:19;17.80;99.90
54264;DHT22;40178;53.042;6.406;2023-07-29T00:47:45;17.80;99.90
54264;DHT22;40178;53.042;6.406;2023-07-29T00:50:12;17.70;99.90
54264;DHT22;40178;53.042;6.406;2023-07-29T00:52:38;17.70;99.90
54264;DHT22;40178;53.042;6.406;2023-07-29T00:55:05;17.60;99.90
54264;DHT22;40178;53.042;6.406;2023-07-29T00:57:32;17.60;99.90
54264;DHT22;40178;53.042;6.406;2023-07-29T00:59:59;17.60;99.90
54264;DHT22;40178;53.042;6.406;2023-07-29T01:02:26;17.60;99.90
54264;DHT22;40178;53.042;6.406;2023-07-29T01:04:56;17.40;99.90
54264;DHT22;40178;53.042;6.406;2023-07-29T01:16:03;17.20;99.90
54264;DHT22;40178;53.042;6.406;2023-07-29T01:18:36;17.20;99.90
54264;DHT22;40178;53.042;6.406;2023-07-29T01:21:07;17.20;99.90
54264;DHT22;40178;53.042;6.406;2023-07-29T01:23:34;17.20;99.90
54264;DHT22;40178;53.042;6.406;2023-07-29T01:26:00;17.10;99.90
54264;DHT22;40178;53.042;6.406;2023-07-29T01:28:27;17.10;99.90
54264;DHT22;40178;53.042;6.406;2023-07-29T01:30:59;17.00;99.90
54264;DHT22;40178;53.042;6.406;2023-07-29T01:33:31;17.00;99.90
54264;DHT22;40178;53.042;6.406;2023-07-29T01:36:02;16.90;99.90
54264;DHT22;40178;53.042;6.406;2023-07-29T01:38:38;16.90;99.90
54264;DHT22;40178;53.042;6.406;2023-07-29T01:41:08;16.80;99.90
54264;DHT22;40178;53.042;6.406;2023-07-29T01:43:34;16.70;99.90
54264;DHT22;40178;53.042;6.406;2023-07-29T01:46:07;16.70;99.90
54264;DHT22;40178;53.042;6.406;2023-07-29T01:48:32;16.60;99.90
54264;DHT22;40178;53.042;6.406;2023-07-29T01:50:58;16.50;99.90
54264;DHT22;40178;53.042;6.406;2023-07-29T01:53:23;16.60;99.90
54264;DHT22;40178;53.042;6.406;2023-07-29T01:55:49;16.60;99.90
54264;DHT22;40178;53.042;6.406;2023-07-29T01:58:15;16.60;99.90
54264;DHT22;40178;53.042;6.406;2023-07-29T02:00:40;16.50;99.90
54264;DHT22;40178;53.042;6.406;2023-07-29T02:03:06;16.50;99.90
54264;DHT22;40178;53.042;6.406;2023-07-29T02:05:32;16.40;99.90
54264;DHT22;40178;53.042;6.406;2023-07-29T02:07:57;16.40;99.90
54264;DHT22;40178;53.042;6.406;2023-07-29T02:10:23;16.50;99.90
54264;DHT22;40178;53.042;6.406;2023-07-29T02:12:48;16.50;99.90
54264;DHT22;40178;53.042;6.406;2023-07-29T02:15:14;16.50;99.90
54264;DHT22;40178;53.042;6.406;2023-07-29T02:17:42;16.50;99.90
54264;DHT22;40178;53.042;6.406;2023-07-29T02:20:08;16.60;99.90
54264;DHT22;40178;53.042;6.406;2023-07-29T02:22:36;16.50;99.90
54264;DHT22;40178;53.042;6.406;2023-07-29T02:25:02;16.40;99.90
54264;DHT22;40178;53.042;6.406;2023-07-29T02:27:28;16.50;99.90
54264;DHT22;40178;53.042;6.406;2023-07-29T02:29:54;16.50;99.90
54264;DHT22;40178;53.042;6.406;2023-07-29T02:32:20;16.40;99.90
54264;DHT22;40178;53.042;6.406;2023-07-29T02:34:46;16.40;99.90
54264;DHT22;40178;53.042;6.406;2023-07-29T02:37:11;16.40;99.90
54264;DHT22;40178;53.042;6.406;2023-07-29T02:39:37;16.40;99.90
54264;DHT22;40178;53.042;6.406;2023-07-29T02:42:03;16.40;99.90
54264;DHT22;40178;53.042;6.406;2023-07-29T02:44:29;16.30;99.90
54264;DHT22;40178;53.042;6.406;2023-07-29T02:46:54;16.40;99.90
54264;DHT22;40178;53.042;6.406;2023-07-29T02:49:22;16.40;99.90
54264;DHT22;40178;53.042;6.406;2023-07-29T02:51:47;16.40;99.90
54264;DHT22;40178;53.042;6.406;2023-07-29T02:54:13;16.30;99.90
54264;DHT22;40178;53.042;6.406;2023-07-29T02:56:38;16.30;99.90
54264;DHT22;40178;53.042;6.406;2023-07-29T02:59:04;16.20;99.90
54264;DHT22;40178;53.042;6.406;2023-07-29T03:01:30;16.20;99.90
54264;DHT22;40178;53.042;6.406;2023-07-29T03:03:56;16.20;99.90
54264;DHT22;40178;53.042;6.406;2023-07-29T03:06:22;16.10;99.90
54264;DHT22;40178;53.042;6.406;2023-07-29T03:08:47;16.10;99.90
54264;DHT22;40178;53.042;6.406;2023-07-29T03:11:14;16.10;99.90
54264;DHT22;40178;53.042;6.406;2023-07-29T03:13:41;16.10;99.90
54264;DHT22;40178;53.042;6.406;2023-07-29T03:16:08;16.10;99.90
54264;DHT22;40178;53.042;6.406;2023-07-29T03:18:34;16.00;99.90
54264;DHT22;40178;53.042;6.406;2023-07-29T03:21:00;16.00;99.90
54264;DHT22;40178;53.042;6.406;2023-07-29T03:23:28;16.00;99.90
54264;DHT22;40178;53.042;6.406;2023-07-29T03:25:55;15.90;99.90
54264;DHT22;40178;53.042;6.406;2023-07-29T03:28:32;15.80;99.90
54264;DHT22;40178;53.042;6.406;2023-07-29T03:30:58;15.90;99.90
54264;DHT22;40178;53.042;6.406;2023-07-29T03:33:25;15.80;99.90
54264;DHT22;40178;53.042;6.406;2023-07-29T03:35:51;15.70;99.90
54264;DHT22;40178;53.042;6.406;2023-07-29T03:38:17;15.70;99.90
54264;DHT22;40178;53.042;6.406;2023-07-29T03:40:43;15.70;99.90
54264;DHT22;40178;53.042;6.406;2023-07-29T03:43:09;15.70;99.90
54264;DHT22;40178;53.042;6.406;2023-07-29T03:45:35;15.60;99.90
54264;DHT22;40178;53.042;6.406;2023-07-29T03:48:01;15.60;99.90
54264;DHT22;40178;53.042;6.406;2023-07-29T03:50:27;15.60;99.90
54264;DHT22;40178;53.042;6.406;2023-07-29T03:52:53;15.60;99.90
54264;DHT22;40178;53.042;6.406;2023-07-29T03:55:19;15.50;99.90
54264;DHT22;40178;53.042;6.406;2023-07-29T03:57:44;15.60;99.90
54264;DHT22;40178;53.042;6.406;2023-07-29T04:00:10;15.60;99.90
54264;DHT22;40178;53.042;6.406;2023-07-29T04:02:36;15.60;99.90
54264;DHT22;40178;53.042;6.406;2023-07-29T04:05:05;15.60;99.90
54264;DHT22;40178;53.042;6.406;2023-07-29T04:07:34;15.60;99.90
54264;DHT22;40178;53.042;6.406;2023-07-29T04:10:00;15.60;99.90
54264;DHT22;40178;53.042;6.406;2023-07-29T04:12:26;15.70;99.90
54264;DHT22;40178;53.042;6.406;2023-07-29T04:14:52;15.70;99.90
54264;DHT22;40178;53.042;6.406;2023-07-29T04:17:18;15.70;99.90
54264;DHT22;40178;53.042;6.406;2023-07-29T04:19:43;15.80;99.90
54264;DHT22;40178;53.042;6.406;2023-07-29T04:22:09;15.80;99.90
54264;DHT22;40178;53.042;6.406;2023-07-29T04:24:34;15.80;99.90
54264;DHT22;40178;53.042;6.406;2023-07-29T04:27:00;15.90;99.90
54264;DHT22;40178;53.042;6.406;2023-07-29T04:29:26;15.90;99.90
54264;DHT22;40178;53.042;6.406;2023-07-29T04:31:51;15.90;99.90
54264;DHT22;40178;53.042;6.406;2023-07-29T04:34:20;16.00;99.90
54264;DHT22;40178;53.042;6.406;2023-07-29T04:36:46;16.00;99.90
54264;DHT22;40178;53.042;6.406;2023-07-29T04:39:12;16.10;99.90
54264;DHT22;40178;53.042;6.406;2023-07-29T04:41:38;16.00;99.90
54264;DHT22;40178;53.042;6.406;2023-07-29T04:44:04;16.00;99.90
54264;DHT22;40178;53.042;6.406;2023-07-29T04:46:29;16.00;99.90
54264;DHT22;40178;53.042;6.406;2023-07-29T04:48:55;16.10;99.90
54264;DHT22;40178;53.042;6.406;2023-07-29T04:51:21;16.10;99.90
54264;DHT22;40178;53.042;6.406;2023-07-29T04:53:47;16.10;99.90
54264;DHT22;40178;53.042;6.406;2023-07-29T04:56:12;16.20;99.90
54264;DHT22;40178;53.042;6.406;2023-07-29T04:58:38;16.20;99.90
54264;DHT22;40178;53.042;6.406;2023-07-29T05:01:04;16.20;99.90
54264;DHT22;40178;53.042;6.406;2023-07-29T05:03:30;16.20;99.90
54264;DHT22;40178;53.042;6.406;2023-07-29T05:05:56;16.30;99.90
54264;DHT22;40178;53.042;6.406;2023-07-29T05:08:22;16.30;99.90
54264;DHT22;40178;53.042;6.406;2023-07-29T05:10:52;16.30;99.90
54264;DHT22;40178;53.042;6.406;2023-07-29T05:13:18;16.30;99.90
54264;DHT22;40178;53.042;6.406;2023-07-29T05:15:44;16.40;99.90
54264;DHT22;40178;53.042;6.406;2023-07-29T05:18:10;16.30;99.90
54264;DHT22;40178;53.042;6.406;2023-07-29T05:20:35;16.30;99.90
54264;DHT22;40178;53.042;6.406;2023-07-29T05:23:01;16.30;99.90
54264;DHT22;40178;53.042;6.406;2023-07-29T05:25:27;16.20;99.90
54264;DHT22;40178;53.042;6.406;2023-07-29T05:27:53;16.40;99.90
54264;DHT22;40178;53.042;6.406;2023-07-29T05:30:18;16.40;99.90
54264;DHT22;40178;53.042;6.406;2023-07-29T05:32:44;16.40;99.90
54264;DHT22;40178;53.042;6.406;2023-07-29T05:35:10;16.50;99.90
54264;DHT22;40178;53.042;6.406;2023-07-29T05:37:38;16.50;99.90
54264;DHT22;40178;53.042;6.406;2023-07-29T05:40:06;16.50;99.90
54264;DHT22;40178;53.042;6.406;2023-07-29T05:42:32;16.50;99.90
54264;DHT22;40178;53.042;6.406;2023-07-29T05:44:58;16.50;99.90
54264;DHT22;40178;53.042;6.406;2023-07-29T05:47:24;16.50;99.90
54264;DHT22;40178;53.042;6.406;2023-07-29T05:49:49;16.50;99.90
54264;DHT22;40178;53.042;6.406;2023-07-29T05:52:15;16.60;99.90
54264;DHT22;40178;53.042;6.406;2023-07-29T05:54:41;16.60;99.90
54264;DHT22;40178;53.042;6.406;2023-07-29T05:57:09;16.60;99.90
54264;DHT22;40178;53.042;6.406;2023-07-29T05:59:35;16.60;99.90
54264;DHT22;40178;53.042;6.406;2023-07-29T06:02:00;16.60;99.90
54264;DHT22;40178;53.042;6.406;2023-07-29T06:04:26;16.70;99.90
54264;DHT22;40178;53.042;6.406;2023-07-29T06:06:51;16.70;99.90
54264;DHT22;40178;53.042;6.406;2023-07-29T06:09:17;16.80;99.90
54264;DHT22;40178;53.042;6.406;2023-07-29T06:11:42;16.70;99.90
54264;DHT22;40178;53.042;6.406;2023-07-29T06:14:08;16.90;99.90
54264;DHT22;40178;53.042;6.406;2023-07-29T06:16:34;17.00;99.90
54264;DHT22;40178;53.042;6.406;2023-07-29T06:18:59;17.10;99.90
54264;DHT22;40178;53.042;6.406;2023-07-29T06:21:25;17.10;99.90
54264;DHT22;40178;53.042;6.406;2023-07-29T06:23:51;17.20;99.90
54264;DHT22;40178;53.042;6.406;2023-07-29T06:26:16;17.30;99.90
54264;DHT22;40178;53.042;6.406;2023-07-29T06:28:42;17.50;99.90
54264;DHT22;40178;53.042;6.406;2023-07-29T06:31:08;17.90;99.90
54264;DHT22;40178;53.042;6.406;2023-07-29T06:33:33;18.00;99.90
54264;DHT22;40178;53.042;6.406;2023-07-29T06:35:59;18.00;99.90
54264;DHT22;40178;53.042;6.406;2023-07-29T06:38:24;18.00;99.90
54264;DHT22;40178;53.042;6.406;2023-07-29T06:40:50;18.00;99.90
54264;DHT22;40178;53.042;6.406;2023-07-29T06:43:16;18.20;99.90
54264;DHT22;40178;53.042;6.406;2023-07-29T06:45:42;18.00;99.90
54264;DHT22;40178;53.042;6.406;2023-07-29T06:48:08;18.10;99.90
54264;DHT22;40178;53.042;6.406;2023-07-29T06:50:33;18.20;99.90
54264;DHT22;40178;53.042;6.406;2023-07-29T06:52:59;18.40;99.90
54264;DHT22;40178;53.042;6.406;2023-07-29T06:55:25;18.40;99.90
54264;DHT22;40178;53.042;6.406;2023-07-29T06:57:50;18.60;99.90
54264;DHT22;40178;53.042;6.406;2023-07-29T07:00:16;18.70;99.90
54264;DHT22;40178;53.042;6.406;2023-07-29T07:02:42;18.90;99.90
54264;DHT22;40178;53.042;6.406;2023-07-29T07:05:10;19.00;99.90
54264;DHT22;40178;53.042;6.406;2023-07-29T07:07:36;19.00;99.90
54264;DHT22;40178;53.042;6.406;2023-07-29T07:10:01;19.00;99.90
54264;DHT22;40178;53.042;6.406;2023-07-29T07:12:27;19.00;99.90
54264;DHT22;40178;53.042;6.406;2023-07-29T07:14:53;19.00;99.90
54264;DHT22;40178;53.042;6.406;2023-07-29T07:17:18;19.00;99.90
54264;DHT22;40178;53.042;6.406;2023-07-29T07:19:44;19.00;99.90
54264;DHT22;40178;53.042;6.406;2023-07-29T07:22:09;18.90;99.90
54264;DHT22;40178;53.042;6.406;2023-07-29T07:24:35;18.90;99.90
54264;DHT22;40178;53.042;6.406;2023-07-29T07:27:01;18.90;99.90
54264;DHT22;40178;53.042;6.406;2023-07-29T07:29:27;18.90;99.90
54264;DHT22;40178;53.042;6.406;2023-07-29T07:31:53;19.10;99.90
54264;DHT22;40178;53.042;6.406;2023-07-29T07:34:20;19.10;99.90
54264;DHT22;40178;53.042;6.406;2023-07-29T07:36:46;19.20;99.90
54264;DHT22;40178;53.042;6.406;2023-07-29T07:39:12;19.40;99.90
54264;DHT22;40178;53.042;6.406;2023-07-29T07:41:38;19.40;99.90
54264;DHT22;40178;53.042;6.406;2023-07-29T07:44:03;19.40;99.90
54264;DHT22;40178;53.042;6.406;2023-07-29T07:46:29;19.40;99.90
54264;DHT22;40178;53.042;6.406;2023-07-29T07:48:55;19.60;99.90
54264;DHT22;40178;53.042;6.406;2023-07-29T07:51:20;19.50;99.90
54264;DHT22;40178;53.042;6.406;2023-07-29T07:53:46;19.50;99.90
54264;DHT22;40178;53.042;6.406;2023-07-29T07:56:12;19.50;99.90
54264;DHT22;40178;53.042;6.406;2023-07-29T07:58:38;19.60;99.90
54264;DHT22;40178;53.042;6.406;2023-07-29T08:01:07;19.60;99.90
54264;DHT22;40178;53.042;6.406;2023-07-29T08:03:34;19.70;99.90
54264;DHT22;40178;53.042;6.406;2023-07-29T08:05:59;19.90;99.90
54264;DHT22;40178;53.042;6.406;2023-07-29T08:08:26;19.90;99.90
54264;DHT22;40178;53.042;6.406;2023-07-29T08:10:56;20.00;99.90
54264;DHT22;40178;53.042;6.406;2023-07-29T08:13:23;20.00;99.90
54264;DHT22;40178;53.042;6.406;2023-07-29T08:15:50;20.20;99.90
54264;DHT22;40178;53.042;6.406;2023-07-29T08:18:17;20.30;99.90
54264;DHT22;40178;53.042;6.406;2023-07-29T08:20:59;20.40;99.90
54264;DHT22;40178;53.042;6.406;2023-07-29T08:23:29;20.50;99.90
54264;DHT22;40178;53.042;6.406;2023-07-29T08:25:56;20.60;99.90
54264;DHT22;40178;53.042;6.406;2023-07-29T08:28:30;20.70;99.90
54264;DHT22;40178;53.042;6.406;2023-07-29T08:30:56;20.70;99.90
54264;DHT22;40178;53.042;6.406;2023-07-29T08:33:21;20.80;99.90
54264;DHT22;40178;53.042;6.406;2023-07-29T08:35:47;20.90;99.90
54264;DHT22;40178;53.042;6.406;2023-07-29T08:38:12;20.80;99.90
54264;DHT22;40178;53.042;6.406;2023-07-29T08:40:44;20.80;99.90
54264;DHT22;40178;53.042;6.406;2023-07-29T08:43:11;20.80;99.90
54264;DHT22;40178;53.042;6.406;2023-07-29T08:45:40;20.60;99.90
54264;DHT22;40178;53.042;6.406;2023-07-29T08:48:08;20.60;99.90
54264;DHT22;40178;53.042;6.406;2023-07-29T08:50:36;20.90;99.90
54264;DHT22;40178;53.042;6.406;2023-07-29T08:53:04;21.00;99.90
54264;DHT22;40178;53.042;6.406;2023-07-29T08:55:31;21.00;99.90
54264;DHT22;40178;53.042;6.406;2023-07-29T08:57:58;20.90;99.90
54264;DHT22;40178;53.042;6.406;2023-07-29T09:00:26;20.80;99.90
54264;DHT22;40178;53.042;6.406;2023-07-29T09:02:52;20.90;99.90
54264;DHT22;40178;53.042;6.406;2023-07-29T09:05:18;21.00;99.90
54264;DHT22;40178;53.042;6.406;2023-07-29T09:07:46;21.30;99.90
54264;DHT22;40178;53.042;6.406;2023-07-29T09:10:13;21.60;99.90
54264;DHT22;40178;53.042;6.406;2023-07-29T09:12:40;21.70;99.90
54264;DHT22;40178;53.042;6.406;2023-07-29T09:15:06;21.90;99.70
54264;DHT22;40178;53.042;6.406;2023-07-29T09:17:33;22.00;98.10
54264;DHT22;40178;53.042;6.406;2023-07-29T09:19:59;22.00;96.70
54264;DHT22;40178;53.042;6.406;2023-07-29T09:22:27;22.00;95.50
54264;DHT22;40178;53.042;6.406;2023-07-29T09:24:53;21.90;96.40
54264;DHT22;40178;53.042;6.406;2023-07-29T09:27:25;21.80;95.90
54264;DHT22;40178;53.042;6.406;2023-07-29T09:29:53;21.80;95.50
54264;DHT22;40178;53.042;6.406;2023-07-29T09:32:20;21.80;94.50
54264;DHT22;40178;53.042;6.406;2023-07-29T09:34:46;21.80;88.40
54264;DHT22;40178;53.042;6.406;2023-07-29T09:37:21;22.00;91.20
54264;DHT22;40178;53.042;6.406;2023-07-29T09:39:48;22.00;77.80
54264;DHT22;40178;53.042;6.406;2023-07-29T09:42:21;22.10;85.90
54264;DHT22;40178;53.042;6.406;2023-07-29T09:44:49;22.50;93.50
54264;DHT22;40178;53.042;6.406;2023-07-29T09:47:20;22.90;82.30
54264;DHT22;40178;53.042;6.406;2023-07-29T09:49:46;22.90;90.50
54264;DHT22;40178;53.042;6.406;2023-07-29T09:52:12;22.90;83.60
54264;DHT22;40178;53.042;6.406;2023-07-29T09:54:39;23.00;83.90
54264;DHT22;40178;53.042;6.406;2023-07-29T09:57:06;22.80;74.00
54264;DHT22;40178;53.042;6.406;2023-07-29T09:59:35;22.90;67.50
54264;DHT22;40178;53.042;6.406;2023-07-29T10:02:01;22.80;78.00
54264;DHT22;40178;53.042;6.406;2023-07-29T10:04:27;22.90;82.20
54264;DHT22;40178;53.042;6.406;2023-07-29T10:06:54;22.80;76.70
54264;DHT22;40178;53.042;6.406;2023-07-29T10:09:20;23.00;61.20
54264;DHT22;40178;53.042;6.406;2023-07-29T10:11:47;23.00;60.90
54264;DHT22;40178;53.042;6.406;2023-07-29T10:14:15;23.20;70.50
54264;DHT22;40178;53.042;6.406;2023-07-29T10:16:41;23.10;62.40
54264;DHT22;40178;53.042;6.406;2023-07-29T10:19:08;23.10;64.00
54264;DHT22;40178;53.042;6.406;2023-07-29T10:21:37;23.00;63.90
54264;DHT22;40178;53.042;6.406;2023-07-29T10:24:06;23.00;63.60
54264;DHT22;40178;53.042;6.406;2023-07-29T10:26:34;22.80;51.50
54264;DHT22;40178;53.042;6.406;2023-07-29T10:29:04;22.70;43.50
54264;DHT22;40178;53.042;6.406;2023-07-29T10:31:34;22.70;53.50
54264;DHT22;40178;53.042;6.406;2023-07-29T10:34:01;22.80;51.50
54264;DHT22;40178;53.042;6.406;2023-07-29T10:36:27;22.60;57.80
54264;DHT22;40178;53.042;6.406;2023-07-29T10:38:54;22.60;65.40
54264;DHT22;40178;53.042;6.406;2023-07-29T10:41:19;22.50;56.90
54264;DHT22;40178;53.042;6.406;2023-07-29T10:43:45;22.30;68.20
54264;DHT22;40178;53.042;6.406;2023-07-29T10:46:18;22.30;72.20
54264;DHT22;40178;53.042;6.406;2023-07-29T10:51:36;21.80;85.60
54264;DHT22;40178;53.042;6.406;2023-07-29T10:54:04;21.40;94.20
54264;DHT22;40178;53.042;6.406;2023-07-29T10:56:34;21.10;98.80
54264;DHT22;40178;53.042;6.406;2023-07-29T11:02:02;20.80;98.60
54264;DHT22;40178;53.042;6.406;2023-07-29T11:04:29;20.80;98.40
54264;DHT22;40178;53.042;6.406;2023-07-29T11:12:45;21.60;85.00
54264;DHT22;40178;53.042;6.406;2023-07-29T11:17:59;22.00;90.60
54264;DHT22;40178;53.042;6.406;2023-07-29T11:20:29;22.30;87.10
54264;DHT22;40178;53.042;6.406;2023-07-29T11:22:56;22.40;72.60
54264;DHT22;40178;53.042;6.406;2023-07-29T11:25:24;22.40;78.50
54264;DHT22;40178;53.042;6.406;2023-07-29T11:27:55;22.20;73.00
54264;DHT22;40178;53.042;6.406;2023-07-29T11:30:21;22.00;70.90
54264;DHT22;40178;53.042;6.406;2023-07-29T11:32:48;22.10;78.50
54264;DHT22;40178;53.042;6.406;2023-07-29T11:35:18;22.60;83.30
54264;DHT22;40178;53.042;6.406;2023-07-29T11:37:48;22.90;79.60
54264;DHT22;40178;53.042;6.406;2023-07-29T11:40:16;23.40;82.70
54264;DHT22;40178;53.042;6.406;2023-07-29T11:42:42;23.40;76.10
54264;DHT22;40178;53.042;6.406;2023-07-29T11:45:09;23.10;51.90
54264;DHT22;40178;53.042;6.406;2023-07-29T11:47:35;22.70;42.80
54264;DHT22;40178;53.042;6.406;2023-07-29T11:50:03;22.60;49.40
54264;DHT22;40178;53.042;6.406;2023-07-29T11:52:31;22.40;65.00
54264;DHT22;40178;53.042;6.406;2023-07-29T11:54:58;22.40;72.10
54264;DHT22;40178;53.042;6.406;2023-07-29T11:57:25;22.30;48.80
54264;DHT22;40178;53.042;6.406;2023-07-29T11:59:51;22.20;50.10
54264;DHT22;40178;53.042;6.406;2023-07-29T12:02:17;22.20;65.10
54264;DHT22;40178;53.042;6.406;2023-07-29T12:04:46;22.00;62.00
54264;DHT22;40178;53.042;6.406;2023-07-29T12:07:13;22.00;53.50
54264;DHT22;40178;53.042;6.406;2023-07-29T12:09:40;22.00;65.50
54264;DHT22;40178;53.042;6.406;2023-07-29T12:12:07;21.90;59.80
54264;DHT22;40178;53.042;6.406;2023-07-29T12:14:33;22.20;57.20
54264;DHT22;40178;53.042;6.406;2023-07-29T12:17:01;22.50;60.10
54264;DHT22;40178;53.042;6.406;2023-07-29T12:19:37;22.60;54.50
54264;DHT22;40178;53.042;6.406;2023-07-29T12:22:05;23.00;65.00
54264;DHT22;40178;53.042;6.406;2023-07-29T12:24:31;23.30;54.20
54264;DHT22;40178;53.042;6.406;2023-07-29T12:26:57;23.40;56.40
54264;DHT22;40178;53.042;6.406;2023-07-29T12:29:23;23.20;45.90
54264;DHT22;40178;53.042;6.406;2023-07-29T12:31:53;23.30;59.10
54264;DHT22;40178;53.042;6.406;2023-07-29T12:34:22;23.70;49.20
54264;DHT22;40178;53.042;6.406;2023-07-29T12:36:51;23.70;31.50
54264;DHT22;40178;53.042;6.406;2023-07-29T12:39:21;23.90;17.40
54264;DHT22;40178;53.042;6.406;2023-07-29T12:41:48;23.60;9.80
54264;DHT22;40178;53.042;6.406;2023-07-29T12:44:14;23.60;9.30
54264;DHT22;40178;53.042;6.406;2023-07-29T12:46:40;23.30;17.90
54264;DHT22;40178;53.042;6.406;2023-07-29T12:49:06;23.40;33.30
54264;DHT22;40178;53.042;6.406;2023-07-29T12:51:32;23.00;1.00
54264;DHT22;40178;53.042;6.406;2023-07-29T12:53:57;23.00;30.60
54264;DHT22;40178;53.042;6.406;2023-07-29T12:56:23;23.00;41.20
54264;DHT22;40178;53.042;6.406;2023-07-29T12:58:49;23.30;44.80
54264;DHT22;40178;53.042;6.406;2023-07-29T13:01:15;23.40;39.60
54264;DHT22;40178;53.042;6.406;2023-07-29T13:03:48;23.30;21.30
54264;DHT22;40178;53.042;6.406;2023-07-29T13:06:14;23.30;38.80
54264;DHT22;40178;53.042;6.406;2023-07-29T13:08:41;23.30;30.40
54264;DHT22;40178;53.042;6.406;2023-07-29T13:11:06;23.10;29.20
54264;DHT22;40178;53.042;6.406;2023-07-29T13:13:32;23.00;3.60
54264;DHT22;40178;53.042;6.406;2023-07-29T13:15:58;22.90;24.20
54264;DHT22;40178;53.042;6.406;2023-07-29T13:18:24;22.90;13.00
54264;DHT22;40178;53.042;6.406;2023-07-29T13:20:49;23.10;42.80
54264;DHT22;40178;53.042;6.406;2023-07-29T13:23:15;23.20;23.60
54264;DHT22;40178;53.042;6.406;2023-07-29T13:25:41;23.30;30.10
54264;DHT22;40178;53.042;6.406;2023-07-29T13:28:09;23.40;27.60
54264;DHT22;40178;53.042;6.406;2023-07-29T13:30:35;23.80;34.00
54264;DHT22;40178;53.042;6.406;2023-07-29T13:33:00;23.90;7.20
54264;DHT22;40178;53.042;6.406;2023-07-29T13:35:26;23.80;1.00
54264;DHT22;40178;53.042;6.406;2023-07-29T13:37:52;23.70;1.00
54264;DHT22;40178;53.042;6.406;2023-07-29T13:40:17;23.50;1.00
54264;DHT22;40178;53.042;6.406;2023-07-29T13:42:43;23.60;1.00
54264;DHT22;40178;53.042;6.406;2023-07-29T13:45:09;23.70;1.00
54264;DHT22;40178;53.042;6.406;2023-07-29T13:47:34;23.90;1.00
54264;DHT22;40178;53.042;6.406;2023-07-29T13:50:02;24.10;1.00
54264;DHT22;40178;53.042;6.406;2023-07-29T13:52:28;24.30;1.00
54264;DHT22;40178;53.042;6.406;2023-07-29T13:54:53;24.30;1.00
54264;DHT22;40178;53.042;6.406;2023-07-29T13:57:19;24.10;1.00
54264;DHT22;40178;53.042;6.406;2023-07-29T13:59:44;24.00;1.00
54264;DHT22;40178;53.042;6.406;2023-07-29T14:02:10;24.30;1.00
54264;DHT22;40178;53.042;6.406;2023-07-29T14:04:35;24.50;1.00
54264;DHT22;40178;53.042;6.406;2023-07-29T14:07:01;24.20;1.00
54264;DHT22;40178;53.042;6.406;2023-07-29T14:09:27;23.90;1.00
54264;DHT22;40178;53.042;6.406;2023-07-29T14:11:55;23.80;1.00
54264;DHT22;40178;53.042;6.406;2023-07-29T14:14:21;23.90;1.00
54264;DHT22;40178;53.042;6.406;2023-07-29T14:16:47;23.90;1.00
54264;DHT22;40178;53.042;6.406;2023-07-29T14:19:13;23.60;1.00
54264;DHT22;40178;53.042;6.406;2023-07-29T14:21:38;23.60;1.00
54264;DHT22;40178;53.042;6.406;2023-07-29T14:24:05;23.70;1.00
54264;DHT22;40178;53.042;6.406;2023-07-29T14:26:30;23.60;1.00
54264;DHT22;40178;53.042;6.406;2023-07-29T14:28:56;23.80;1.00
54264;DHT22;40178;53.042;6.406;2023-07-29T14:31:21;23.80;1.00
54264;DHT22;40178;53.042;6.406;2023-07-29T14:33:47;23.80;1.00
54264;DHT22;40178;53.042;6.406;2023-07-29T14:36:15;23.90;1.00
54264;DHT22;40178;53.042;6.406;2023-07-29T14:38:41;24.00;1.00
54264;DHT22;40178;53.042;6.406;2023-07-29T14:41:07;23.90;1.00
54264;DHT22;40178;53.042;6.406;2023-07-29T14:43:34;24.00;1.00
54264;DHT22;40178;53.042;6.406;2023-07-29T14:46:00;24.20;1.00
54264;DHT22;40178;53.042;6.406;2023-07-29T14:48:26;24.50;1.00
54264;DHT22;40178;53.042;6.406;2023-07-29T14:50:51;24.80;1.00
54264;DHT22;40178;53.042;6.406;2023-07-29T14:53:17;25.20;1.00
54264;DHT22;40178;53.042;6.406;2023-07-29T14:55:43;25.40;99.90
54264;DHT22;40178;53.042;6.406;2023-07-29T14:58:08;25.20;99.90
54264;DHT22;40178;53.042;6.406;2023-07-29T15:00:34;25.40;1.00
54264;DHT22;40178;53.042;6.406;2023-07-29T15:03:00;25.20;99.90
54264;DHT22;40178;53.042;6.406;2023-07-29T15:05:25;25.10;99.90
54264;DHT22;40178;53.042;6.406;2023-07-29T15:07:51;25.30;1.00
54264;DHT22;40178;53.042;6.406;2023-07-29T15:10:17;25.30;99.90
54264;DHT22;40178;53.042;6.406;2023-07-29T15:12:43;25.50;99.90
54264;DHT22;40178;53.042;6.406;2023-07-29T15:15:10;25.80;1.00
54264;DHT22;40178;53.042;6.406;2023-07-29T15:17:36;26.20;99.90
54264;DHT22;40178;53.042;6.406;2023-07-29T15:20:03;26.30;1.00
54264;DHT22;40178;53.042;6.406;2023-07-29T15:22:31;26.00;32.10
54264;DHT22;40178;53.042;6.406;2023-07-29T15:24:57;25.90;99.90
54264;DHT22;40178;53.042;6.406;2023-07-29T15:27:26;26.10;1.00
54264;DHT22;40178;53.042;6.406;2023-07-29T15:29:51;26.10;1.00
54264;DHT22;40178;53.042;6.406;2023-07-29T15:32:17;26.20;17.30
54264;DHT22;40178;53.042;6.406;2023-07-29T15:34:43;26.30;99.90
54264;DHT22;40178;53.042;6.406;2023-07-29T15:37:08;26.50;1.00
54264;DHT22;40178;53.042;6.406;2023-07-29T15:39:34;26.80;1.00
54264;DHT22;40178;53.042;6.406;2023-07-29T15:41:59;26.60;99.90
54264;DHT22;40178;53.042;6.406;2023-07-29T15:44:25;26.80;99.90
54264;DHT22;40178;53.042;6.406;2023-07-29T15:46:51;27.00;99.90
54264;DHT22;40178;53.042;6.406;2023-07-29T15:49:21;26.70;28.30
54264;DHT22;40178;53.042;6.406;2023-07-29T15:51:46;26.90;1.00